Time;durP1;ratioP1;P1;durP2;ratioP2;P2;SDS_P1;SDS_P2;PMS_P1;PMS_P2;Temp;Humidity;BMP_temperature;BMP_pressure;BME280_temperature;BME280_humidity;BME280_pressure;Samples;Min_cycle;Max_cycle;Signal;HPM_P1;HPM_P2
2023/02/10 00:01:07;;;;;;;14.25;2.28;;;5.20;99.90;;;;;;5036553;28;20029;-89
2023/02/10 00:03:33;;;;;;;12.65;2.97;;;5.20;99.90;;;;;;5035993;28;20029;-90
2023/02/10 00:05:59;;;;;;;9.88;2.55;;;5.20;99.90;;;;;;5036093;28;20067;-89
2023/02/10 00:08:25;;;;;;;15.63;2.70;;;5.20;99.90;;;;;;5035917;28;20040;-89
2023/02/10 00:10:50;;;;;;;7.82;1.95;;;5.20;99.90;;;;;;5036677;28;20036;-89
2023/02/10 00:13:16;;;;;;;14.27;2.63;;;5.20;99.90;;;;;;5039443;28;20060;-89
2023/02/10 00:15:42;;;;;;;13.02;2.28;;;5.10;99.90;;;;;;5036942;28;20090;-89
2023/02/10 00:18:08;;;;;;;7.85;2.40;;;5.20;99.90;;;;;;5035512;28;20091;-88
2023/02/10 00:20:33;;;;;;;14.65;2.60;;;5.20;99.90;;;;;;5035919;28;20135;-88
2023/02/10 00:22:59;;;;;;;10.88;1.90;;;5.10;99.90;;;;;;5035853;28;20387;-88
2023/02/10 00:25:24;;;;;;;9.13;2.00;;;5.10;99.90;;;;;;5035645;28;20047;-88
2023/02/10 00:27:50;;;;;;;14.13;4.05;;;5.10;99.90;;;;;;5036005;28;20075;-87
2023/02/10 00:30:16;;;;;;;16.13;2.33;;;5.10;99.90;;;;;;5036365;28;20021;-89
2023/02/10 00:32:41;;;;;;;19.83;4.40;;;5.10;99.90;;;;;;5050639;28;20037;-89
2023/02/10 00:35:08;;;;;;;11.68;2.47;;;5.00;99.90;;;;;;5032766;28;20032;-90
2023/02/10 00:37:34;;;;;;;9.32;2.55;;;5.00;99.90;;;;;;5014785;28;20026;-91
2023/02/10 00:39:59;;;;;;;10.10;2.50;;;4.90;99.90;;;;;;5032765;28;20056;-90
2023/02/10 00:42:25;;;;;;;11.93;2.42;;;4.90;99.90;;;;;;5015083;28;20064;-90
2023/02/10 00:44:51;;;;;;;12.43;2.55;;;4.90;99.90;;;;;;5032810;28;20041;-91
2023/02/10 00:47:16;;;;;;;11.82;2.30;;;4.90;99.90;;;;;;5015341;28;20052;-91
2023/02/10 00:49:42;;;;;;;10.18;2.53;;;4.80;99.90;;;;;;5032632;28;20037;-90
2023/02/10 00:52:09;;;;;;;19.73;3.05;;;4.80;99.90;;;;;;5015102;28;20032;-89
2023/02/10 00:54:34;;;;;;;10.13;4.00;;;4.80;99.90;;;;;;5032921;28;20029;-90
2023/02/10 00:57:00;;;;;;;9.30;2.25;;;4.70;99.90;;;;;;5040864;28;20036;-88
2023/02/10 00:59:26;;;;;;;14.18;2.53;;;4.60;99.90;;;;;;5019742;28;20048;-89
2023/02/10 01:01:52;;;;;;;16.83;2.58;;;4.60;99.90;;;;;;5015172;28;20068;-90
2023/02/10 01:04:17;;;;;;;8.00;2.22;;;4.60;99.90;;;;;;5032481;28;20029;-87
2023/02/10 01:06:43;;;;;;;11.18;2.72;;;4.60;99.90;;;;;;5014863;28;20024;-88
2023/02/10 01:09:09;;;;;;;11.98;1.85;;;4.60;99.90;;;;;;5014964;28;20136;-89
2023/02/10 01:11:35;;;;;;;7.95;1.80;;;4.60;99.90;;;;;;5014944;28;20033;-90
2023/02/10 01:14:00;;;;;;;16.15;2.47;;;4.50;99.90;;;;;;5014570;28;20030;-88
2023/02/10 01:16:26;;;;;;;8.60;2.03;;;4.50;99.90;;;;;;5032247;28;20021;-89
2023/02/10 01:18:52;;;;;;;12.90;3.08;;;4.40;99.90;;;;;;5014539;28;20030;-89
2023/02/10 01:21:20;;;;;;;13.02;3.28;;;4.40;99.90;;;;;;5014799;28;20438;-89
2023/02/10 01:23:46;;;;;;;11.13;1.98;;;4.40;99.90;;;;;;5015033;28;20025;-89
2023/02/10 01:26:12;;;;;;;8.23;2.17;;;4.30;99.90;;;;;;5015301;28;20120;-89
2023/02/10 01:28:39;;;;;;;7.97;1.58;;;4.30;99.90;;;;;;5014742;28;20109;-89
2023/02/10 01:31:10;;;;;;;9.65;2.17;;;4.20;99.90;;;;;;5017425;28;20044;-88
2023/02/10 01:33:35;;;;;;;8.20;2.03;;;4.20;99.90;;;;;;5035194;28;20483;-88
2023/02/10 01:36:09;;;;;;;8.70;2.00;;;4.10;99.90;;;;;;5033357;28;20028;-88
2023/02/10 01:38:35;;;;;;;17.58;3.00;;;4.20;99.90;;;;;;5035393;28;20026;-88
2023/02/10 01:41:02;;;;;;;8.55;1.95;;;4.10;99.90;;;;;;5020759;28;20471;-87
2023/02/10 01:43:27;;;;;;;4.97;1.80;;;4.10;99.90;;;;;;5037703;28;20029;-88
2023/02/10 01:45:53;;;;;;;10.85;1.98;;;4.10;99.90;;;;;;5015679;28;20025;-90
2023/02/10 01:48:19;;;;;;;13.75;2.97;;;4.10;99.90;;;;;;5034437;28;20045;-89
2023/02/10 01:50:50;;;;;;;12.15;2.17;;;4.00;99.90;;;;;;5033917;28;20036;-89
2023/02/10 01:53:15;;;;;;;14.57;2.72;;;3.90;99.90;;;;;;5017989;28;20032;-90
2023/02/10 01:55:46;;;;;;;9.07;2.17;;;3.90;99.90;;;;;;5018219;28;20042;-89
2023/02/10 01:58:15;;;;;;;9.88;2.67;;;3.80;99.90;;;;;;5018015;28;20147;-89
2023/02/10 02:00:40;;;;;;;16.45;2.67;;;3.80;99.90;;;;;;5017862;28;20021;-88
2023/02/10 02:03:07;;;;;;;12.07;2.78;;;3.70;99.90;;;;;;5018133;28;20029;-88
2023/02/10 02:05:41;;;;;;;6.45;2.45;;;3.80;99.90;;;;;;5017804;28;20071;-88
2023/02/10 02:08:15;;;;;;;11.27;2.20;;;3.70;99.90;;;;;;5017951;28;20402;-89
2023/02/10 02:11:15;;;;;;;16.67;2.65;;;3.70;99.90;;;;;;5035514;28;20030;-89
2023/02/10 02:13:51;;;;;;;10.23;2.38;;;3.70;99.90;;;;;;5036437;28;20036;-89
2023/02/10 02:16:38;;;;;;;17.90;2.83;;;3.70;99.90;;;;;;5019081;28;20034;-89
2023/02/10 02:19:30;;;;;;;12.98;2.53;;;3.70;99.90;;;;;;5037382;28;20037;-88
2023/02/10 02:21:59;;;;;;;19.75;2.67;;;3.60;99.90;;;;;;5017919;28;20557;-90
2023/02/10 02:24:45;;;;;;;11.30;2.60;;;3.60;99.90;;;;;;5018055;28;20041;-89
2023/02/10 02:27:46;;;;;;;23.60;3.63;;;3.60;99.90;;;;;;5035159;28;20045;-90
2023/02/10 02:30:36;;;;;;;16.35;2.50;;;3.50;99.90;;;;;;5018077;28;20037;-89
2023/02/10 02:33:11;;;;;;;15.15;2.85;;;3.50;99.90;;;;;;5034941;28;20063;-89
2023/02/10 02:35:44;;;;;;;13.27;2.42;;;3.40;99.90;;;;;;5017273;28;20188;-89
2023/02/10 02:38:10;;;;;;;19.65;2.88;;;3.40;99.90;;;;;;5018010;28;20026;-88
2023/02/10 02:40:36;;;;;;;17.88;2.83;;;3.40;99.90;;;;;;5035060;28;20018;-90
2023/02/10 02:43:02;;;;;;;13.18;2.08;;;3.40;99.90;;;;;;5017608;28;20399;-91
2023/02/10 02:46:07;;;;;;;11.32;2.40;;;3.40;99.90;;;;;;5034263;28;20041;-89
2023/02/10 02:48:52;;;;;;;18.77;2.53;;;3.40;99.90;;;;;;5033193;28;20053;-90
2023/02/10 02:51:36;;;;;;;14.65;2.88;;;3.40;99.90;;;;;;5016858;28;20025;-89
2023/02/10 02:54:18;;;;;;;14.63;2.72;;;3.40;99.90;;;;;;5017169;28;20503;-90
2023/02/10 02:57:11;;;;;;;20.58;3.30;;;3.40;99.90;;;;;;5016727;28;20051;-89
2023/02/10 02:59:47;;;;;;;20.77;3.58;;;3.50;99.90;;;;;;5017237;28;20036;-90
2023/02/10 03:02:15;;;;;;;14.68;2.97;;;3.50;99.90;;;;;;5035236;28;20033;-90
2023/02/10 03:04:41;;;;;;;19.88;3.50;;;3.50;99.90;;;;;;5017905;28;20106;-90
2023/02/10 03:07:08;;;;;;;16.65;5.22;;;3.50;99.90;;;;;;5017605;28;20033;-90
2023/02/10 03:09:35;;;;;;;15.25;3.33;;;3.50;99.90;;;;;;5016380;28;20067;-89
2023/02/10 03:12:01;;;;;;;18.50;3.13;;;3.50;99.90;;;;;;5016886;28;20116;-90
2023/02/10 03:14:27;;;;;;;13.02;3.10;;;3.60;99.90;;;;;;5017375;28;20083;-89
2023/02/10 03:16:52;;;;;;;13.65;2.90;;;3.60;99.90;;;;;;5017712;28;20036;-89
2023/02/10 03:19:18;;;;;;;15.85;4.10;;;3.60;99.90;;;;;;5017167;28;20029;-90
2023/02/10 03:21:44;;;;;;;21.70;4.90;;;3.70;99.90;;;;;;5016599;28;20467;-89
2023/02/10 03:24:10;;;;;;;17.58;5.75;;;3.70;99.90;;;;;;5016757;28;20116;-89
2023/02/10 03:26:36;;;;;;;25.98;6.22;;;3.70;99.90;;;;;;5016428;28;20056;-89
2023/02/10 03:29:03;;;;;;;15.57;3.83;;;3.70;99.90;;;;;;5016258;28;20037;-88
2023/02/10 03:31:28;;;;;;;21.08;4.85;;;3.70;99.90;;;;;;5016840;28;20031;-90
2023/02/10 03:33:54;;;;;;;12.18;3.95;;;3.70;99.90;;;;;;5016742;28;20113;-89
2023/02/10 03:36:20;;;;;;;15.50;3.88;;;3.70;99.90;;;;;;5034501;28;20476;-89
2023/02/10 03:38:45;;;;;;;18.38;4.43;;;3.70;99.90;;;;;;5020775;28;20071;-88
2023/02/10 03:41:13;;;;;;;12.80;3.33;;;3.70;99.90;;;;;;5021143;28;20479;-88
2023/02/10 03:43:38;;;;;;;16.27;3.53;;;3.70;99.90;;;;;;5020695;28;20022;-90
2023/02/10 03:46:05;;;;;;;15.20;3.78;;;3.70;99.90;;;;;;5038594;28;20030;-89
2023/02/10 03:48:31;;;;;;;22.98;3.85;;;3.70;99.90;;;;;;5021491;28;20045;-89
2023/02/10 03:51:02;;;;;;;24.70;3.33;;;3.70;99.90;;;;;;5021541;28;20112;-88
2023/02/10 03:53:29;;;;;;;16.95;3.53;;;3.70;99.90;;;;;;5020632;28;20091;-89
2023/02/10 03:55:54;;;;;;;11.98;2.72;;;3.70;99.90;;;;;;5019583;28;20026;-88
2023/02/10 03:58:21;;;;;;;10.88;3.00;;;3.70;99.90;;;;;;5018458;28;20029;-90
2023/02/10 04:00:47;;;;;;;12.68;2.40;;;3.80;99.90;;;;;;5016414;28;20037;-90
2023/02/10 04:03:13;;;;;;;12.75;2.45;;;3.70;99.90;;;;;;5017107;28;20029;-89
2023/02/10 04:05:38;;;;;;;9.07;2.17;;;3.70;99.90;;;;;;5016762;28;20052;-89
2023/02/10 04:08:04;;;;;;;11.02;2.03;;;3.70;99.90;;;;;;5016322;28;20394;-89
2023/02/10 04:10:30;;;;;;;9.43;2.10;;;3.70;99.90;;;;;;5032134;28;20037;-90
2023/02/10 04:12:56;;;;;;;10.43;2.80;;;3.70;99.90;;;;;;5020387;28;20060;-90
2023/02/10 04:15:21;;;;;;;13.43;2.28;;;3.70;99.90;;;;;;5019323;28;20037;-90
2023/02/10 04:17:47;;;;;;;14.10;2.28;;;3.70;99.90;;;;;;5016459;28;20029;-89
2023/02/10 04:20:13;;;;;;;11.63;1.80;;;3.70;99.90;;;;;;5015726;28;20036;-90
2023/02/10 04:22:39;;;;;;;11.65;3.17;;;3.70;99.90;;;;;;5015653;28;20052;-89
2023/02/10 04:25:05;;;;;;;15.77;3.25;;;3.70;99.90;;;;;;5033716;28;20065;-89
2023/02/10 04:27:31;;;;;;;16.13;3.80;;;3.70;99.90;;;;;;5015644;28;20025;-89
2023/02/10 04:29:57;;;;;;;11.35;2.40;;;3.70;99.90;;;;;;5015298;28;20045;-89
2023/02/10 04:32:22;;;;;;;20.58;2.97;;;3.70;99.90;;;;;;5033031;28;20044;-88
2023/02/10 04:34:48;;;;;;;16.77;2.95;;;3.60;99.90;;;;;;5015542;28;20029;-90
2023/02/10 04:37:14;;;;;;;8.77;2.13;;;3.70;99.90;;;;;;5015613;28;20468;-90
2023/02/10 04:39:40;;;;;;;24.08;5.22;;;3.70;99.90;;;;;;5016735;28;20029;-89
2023/02/10 04:42:06;;;;;;;16.80;3.22;;;3.70;99.90;;;;;;5017356;28;20045;-89
2023/02/10 04:44:32;;;;;;;13.75;2.60;;;3.70;99.90;;;;;;5034430;28;20021;-89
2023/02/10 04:46:57;;;;;;;18.83;2.38;;;3.70;99.90;;;;;;5016582;28;20029;-88
2023/02/10 04:49:24;;;;;;;14.50;2.40;;;3.70;99.90;;;;;;5034346;28;20034;-90
2023/02/10 04:51:50;;;;;;;20.02;2.97;;;3.70;99.90;;;;;;5016483;28;20108;-89
2023/02/10 04:54:15;;;;;;;8.02;1.92;;;3.70;99.90;;;;;;5016168;28;20506;-89
2023/02/10 04:56:41;;;;;;;16.77;2.90;;;3.70;99.90;;;;;;5016080;28;20036;-90
2023/02/10 04:59:07;;;;;;;13.85;2.50;;;3.70;99.90;;;;;;5016016;28;20509;-89
2023/02/10 05:01:33;;;;;;;13.98;2.50;;;3.70;99.90;;;;;;5015848;28;20475;-89
2023/02/10 05:03:59;;;;;;;9.50;3.40;;;3.70;99.90;;;;;;5033593;28;20039;-91
2023/02/10 05:06:24;;;;;;;24.60;3.50;;;3.70;99.90;;;;;;5015276;28;20026;-89
2023/02/10 05:08:50;;;;;;;11.13;2.67;;;3.70;99.90;;;;;;5016340;28;20036;-90
2023/02/10 05:11:17;;;;;;;18.17;2.95;;;3.60;99.90;;;;;;5016667;28;20086;-88
2023/02/10 05:13:43;;;;;;;10.65;2.65;;;3.60;99.90;;;;;;5017536;28;20034;-89
2023/02/10 05:16:10;;;;;;;16.58;2.33;;;3.60;99.90;;;;;;5017124;28;20108;-90
2023/02/10 05:18:37;;;;;;;11.35;1.77;;;3.60;99.90;;;;;;5032516;28;20033;-89
2023/02/10 05:21:03;;;;;;;14.02;2.20;;;3.60;99.90;;;;;;5016800;28;20115;-88
2023/02/10 05:23:29;;;;;;;13.50;2.40;;;3.60;99.90;;;;;;5019543;28;20053;-87
2023/02/10 05:25:55;;;;;;;14.55;1.98;;;3.60;99.90;;;;;;5036016;28;20140;-87
2023/02/10 05:28:21;;;;;;;10.82;1.77;;;3.60;99.90;;;;;;5019301;28;20037;-89
2023/02/10 05:30:48;;;;;;;5.55;1.67;;;3.60;99.90;;;;;;5019313;28;20028;-89
2023/02/10 05:33:14;;;;;;;7.40;1.52;;;3.60;99.90;;;;;;5036230;28;20029;-89
2023/02/10 05:35:40;;;;;;;11.18;2.22;;;3.60;99.90;;;;;;5019062;28;20018;-89
2023/02/10 05:38:05;;;;;;;7.15;1.48;;;3.60;99.90;;;;;;5018833;28;20026;-88
2023/02/10 05:40:31;;;;;;;11.07;2.10;;;3.60;99.90;;;;;;5018814;28;20025;-88
2023/02/10 05:42:57;;;;;;;13.75;1.95;;;3.60;99.90;;;;;;5018717;28;20064;-88
2023/02/10 05:45:23;;;;;;;12.10;2.38;;;3.60;99.90;;;;;;5018856;28;20032;-88
2023/02/10 05:47:51;;;;;;;11.35;1.80;;;3.60;99.90;;;;;;5035177;28;20091;-87
2023/02/10 05:50:17;;;;;;;8.07;1.92;;;3.60;99.90;;;;;;5018987;28;20097;-87
2023/02/10 05:52:43;;;;;;;12.32;1.73;;;3.60;99.90;;;;;;5033136;28;20121;-88
2023/02/10 05:55:08;;;;;;;8.60;1.70;;;3.60;99.90;;;;;;5038500;28;20061;-89
2023/02/10 05:57:34;;;;;;;10.10;1.80;;;3.60;99.90;;;;;;5038834;28;20128;-88
2023/02/10 06:00:00;;;;;;;11.23;2.05;;;3.60;99.90;;;;;;5038090;28;20029;-89
2023/02/10 06:02:25;;;;;;;8.73;2.22;;;3.60;99.90;;;;;;5038139;28;20436;-88
2023/02/10 06:04:51;;;;;;;10.35;1.75;;;3.50;99.90;;;;;;5038232;28;20028;-89
2023/02/10 06:07:17;;;;;;;13.10;1.83;;;3.60;99.90;;;;;;5038131;28;20059;-89
2023/02/10 06:09:44;;;;;;;13.82;2.08;;;3.60;99.90;;;;;;5037489;28;20037;-86
2023/02/10 06:12:10;;;;;;;8.88;1.90;;;3.50;99.90;;;;;;5037466;28;20086;-88
2023/02/10 06:14:37;;;;;;;10.35;2.08;;;3.50;99.90;;;;;;5037795;28;20428;-88
2023/02/10 06:17:09;;;;;;;9.60;1.75;;;3.50;99.90;;;;;;5038079;28;20025;-89
2023/02/10 06:19:39;;;;;;;8.80;2.47;;;3.50;99.90;;;;;;5038069;28;20139;-88
2023/02/10 06:22:06;;;;;;;15.23;2.33;;;3.40;99.90;;;;;;5037710;28;20123;-88
2023/02/10 06:24:32;;;;;;;11.82;2.22;;;3.40;99.90;;;;;;5037470;28;20284;-88
2023/02/10 06:26:58;;;;;;;13.73;1.90;;;3.40;99.90;;;;;;5038070;28;20021;-88
2023/02/10 06:29:24;;;;;;;8.57;1.50;;;3.40;99.90;;;;;;5037551;28;20033;-89
2023/02/10 06:31:49;;;;;;;11.80;2.35;;;3.40;99.90;;;;;;5037163;28;20127;-87
2023/02/10 06:34:16;;;;;;;10.75;2.00;;;3.40;99.90;;;;;;5037683;28;20134;-90
2023/02/10 06:36:42;;;;;;;9.63;1.63;;;3.40;99.90;;;;;;5038597;28;20031;-88
2023/02/10 06:39:07;;;;;;;18.05;2.47;;;3.40;99.90;;;;;;5037458;28;20128;-89
2023/02/10 06:41:33;;;;;;;11.82;1.77;;;3.40;99.90;;;;;;5037757;28;20033;-89
2023/02/10 06:43:59;;;;;;;13.07;1.90;;;3.30;99.90;;;;;;5036321;28;20035;-90
2023/02/10 06:46:25;;;;;;;9.57;2.10;;;3.40;99.90;;;;;;5048780;28;20021;-88
2023/02/10 06:48:51;;;;;;;12.40;2.22;;;3.40;99.90;;;;;;5031236;28;20054;-88
2023/02/10 06:51:17;;;;;;;16.15;2.75;;;3.40;99.90;;;;;;5033360;28;20031;-90
2023/02/10 06:53:43;;;;;;;18.45;2.70;;;3.50;99.90;;;;;;5016336;28;20112;-90
2023/02/10 06:56:10;;;;;;;15.55;2.42;;;3.40;99.90;;;;;;5017892;28;20060;-89
2023/02/10 06:58:35;;;;;;;15.70;2.67;;;3.50;99.90;;;;;;5030835;28;20032;-88
2023/02/10 07:01:14;;;;;;;17.10;2.88;;;3.40;99.90;;;;;;5026628;28;20033;-90
2023/02/10 07:03:40;;;;;;;8.77;2.25;;;3.50;99.90;;;;;;5016467;28;20034;-89
2023/02/10 07:06:06;;;;;;;16.23;2.75;;;3.50;99.90;;;;;;5017053;28;20036;-91
2023/02/10 07:08:31;;;;;;;13.60;2.75;;;3.40;99.90;;;;;;5016867;28;20034;-91
2023/02/10 07:10:57;;;;;;;14.55;3.08;;;3.40;99.90;;;;;;5018272;28;20029;-90
2023/02/10 07:13:23;;;;;;;16.80;3.20;;;3.40;99.90;;;;;;5036598;28;20021;-90
2023/02/10 07:15:48;;;;;;;3.72;1.13;;;3.40;99.90;;;;;;5033145;28;20061;-89
2023/02/10 07:18:14;;;;;;;10.38;2.72;;;3.40;99.90;;;;;;5034811;28;20044;-89
2023/02/10 07:20:40;;;;;;;17.42;3.22;;;3.40;99.90;;;;;;5017810;28;20026;-91
2023/02/10 07:23:06;;;;;;;21.65;2.72;;;3.40;99.90;;;;;;5018205;28;20030;-91
2023/02/10 07:25:32;;;;;;;21.50;3.03;;;3.40;99.90;;;;;;5017223;28;20026;-89
2023/02/10 07:28:00;;;;;;;17.13;2.70;;;3.40;99.90;;;;;;5017599;28;20104;-90
2023/02/10 07:30:26;;;;;;;12.77;2.05;;;3.40;99.90;;;;;;5017133;28;20112;-89
2023/02/10 07:32:52;;;;;;;14.85;2.00;;;3.40;99.90;;;;;;5018608;28;20642;-90
2023/02/10 07:35:18;;;;;;;12.00;2.00;;;3.40;99.90;;;;;;5017468;28;20026;-90
2023/02/10 07:37:44;;;;;;;7.75;1.58;;;3.40;99.90;;;;;;5016756;28;20025;-89
2023/02/10 07:40:10;;;;;;;13.45;2.03;;;3.40;99.90;;;;;;5017021;28;20086;-90
2023/02/10 07:42:36;;;;;;;14.25;2.88;;;3.40;99.90;;;;;;5016795;28;20108;-91
2023/02/10 07:45:02;;;;;;;11.65;1.92;;;3.40;99.90;;;;;;5017688;28;20270;-90
2023/02/10 07:47:28;;;;;;;11.02;1.48;;;3.40;99.90;;;;;;5018380;28;20045;-91
2023/02/10 07:49:54;;;;;;;18.02;1.88;;;3.40;99.90;;;;;;5020575;28;20491;-91
2023/02/10 07:52:21;;;;;;;9.13;1.75;;;3.40;99.90;;;;;;5019720;28;20060;-90
2023/02/10 07:54:50;;;;;;;8.32;1.48;;;3.40;99.90;;;;;;5022753;28;20105;-91
2023/02/10 07:57:17;;;;;;;13.65;1.70;;;3.50;99.90;;;;;;5053716;28;20025;-89
2023/02/10 07:59:43;;;;;;;10.15;1.58;;;3.50;99.90;;;;;;5032515;28;20017;-90
2023/02/10 08:02:12;;;;;;;12.55;1.80;;;3.50;99.90;;;;;;5037350;28;20025;-90
2023/02/10 08:04:38;;;;;;;16.27;2.83;;;3.50;99.90;;;;;;5037896;28;20031;-89
2023/02/10 08:07:03;;;;;;;12.40;2.10;;;3.50;99.90;;;;;;5036752;28;20119;-89
2023/02/10 08:09:29;;;;;;;15.57;2.03;;;3.60;99.90;;;;;;5036535;28;20032;-89
2023/02/10 08:11:55;;;;;;;8.38;1.90;;;3.60;99.90;;;;;;5036554;28;20036;-89
2023/02/10 08:14:20;;;;;;;13.48;2.88;;;3.70;99.90;;;;;;5053520;28;20542;-89
2023/02/10 08:16:46;;;;;;;21.42;3.10;;;3.70;99.90;;;;;;5035423;28;20024;-89
2023/02/10 08:19:12;;;;;;;8.57;2.35;;;3.70;99.90;;;;;;5035636;28;20029;-89
2023/02/10 08:21:37;;;;;;;14.73;2.10;;;3.70;99.90;;;;;;5036068;28;20047;-89
2023/02/10 08:24:03;;;;;;;11.35;2.92;;;3.80;99.90;;;;;;5036401;28;20045;-88
2023/02/10 08:26:29;;;;;;;18.48;3.03;;;3.80;99.90;;;;;;5035474;28;20040;-90
2023/02/10 08:28:54;;;;;;;11.57;2.65;;;3.90;99.90;;;;;;5034697;28;20041;-89
2023/02/10 08:31:21;;;;;;;22.60;4.03;;;3.90;99.90;;;;;;5036800;28;20029;-89
2023/02/10 08:33:47;;;;;;;19.45;5.28;;;4.00;99.90;;;;;;5036116;28;20036;-90
2023/02/10 08:36:14;;;;;;;17.33;5.53;;;4.00;99.90;;;;;;5036543;28;20029;-89
2023/02/10 08:38:40;;;;;;;18.98;4.78;;;4.00;99.90;;;;;;5038971;28;20028;-89
2023/02/10 08:41:06;;;;;;;13.38;3.67;;;4.10;99.90;;;;;;5073631;28;20048;-87
2023/02/10 08:43:32;;;;;;;21.88;4.47;;;4.10;99.90;;;;;;5056022;28;20075;-88
2023/02/10 08:45:59;;;;;;;11.38;2.83;;;4.10;99.90;;;;;;5055849;28;20031;-89
2023/02/10 08:48:26;;;;;;;18.73;3.38;;;4.20;99.90;;;;;;5055315;28;20048;-89
2023/02/10 08:50:52;;;;;;;15.85;3.58;;;4.20;99.90;;;;;;5032650;28;20033;-88
2023/02/10 08:53:19;;;;;;;19.48;4.30;;;4.30;99.90;;;;;;5034790;28;20124;-90
2023/02/10 08:55:54;;;;;;;18.42;3.63;;;4.30;99.90;;;;;;5038253;28;20024;-89
2023/02/10 08:58:19;;;;;;;21.27;4.40;;;4.30;99.90;;;;;;5035885;28;20498;-89
2023/02/10 09:00:45;;;;;;;9.70;2.97;;;4.30;99.90;;;;;;5038392;28;20040;-89
2023/02/10 09:03:10;;;;;;;19.60;2.97;;;4.40;99.90;;;;;;5053517;28;20033;-89
2023/02/10 09:05:36;;;;;;;21.55;4.45;;;4.40;99.90;;;;;;5035524;28;20421;-88
2023/02/10 09:08:03;;;;;;;18.27;5.07;;;4.40;99.90;;;;;;5032298;28;20041;-88
2023/02/10 09:10:29;;;;;;;16.17;4.55;;;4.40;99.90;;;;;;5034666;28;20501;-88
2023/02/10 09:12:55;;;;;;;28.88;6.55;;;4.50;99.90;;;;;;5035168;28;20152;-88
2023/02/10 09:15:20;;;;;;;30.23;6.80;;;4.40;99.90;;;;;;5036056;28;20470;-88
2023/02/10 09:17:46;;;;;;;24.60;5.30;;;4.50;99.90;;;;;;5036002;28;20029;-88
2023/02/10 09:20:12;;;;;;;21.95;5.65;;;4.50;99.90;;;;;;5062831;28;20036;-88
2023/02/10 09:22:37;;;;;;;24.73;5.30;;;4.50;99.90;;;;;;5055909;28;20047;-88
2023/02/10 09:25:04;;;;;;;21.33;6.10;;;4.60;99.90;;;;;;5055908;28;20132;-89
2023/02/10 09:27:29;;;;;;;28.45;5.82;;;4.60;99.90;;;;;;5073199;28;20016;-87
2023/02/10 09:29:55;;;;;;;21.92;4.82;;;4.70;99.90;;;;;;5047076;28;20090;-89
2023/02/10 09:32:21;;;;;;;13.85;3.40;;;4.70;99.90;;;;;;5035334;28;20037;-88
2023/02/10 09:34:47;;;;;;;14.88;3.30;;;4.80;99.90;;;;;;5034842;28;20482;-90
2023/02/10 09:37:12;;;;;;;15.40;3.17;;;4.80;99.90;;;;;;5035683;28;20028;-89
2023/02/10 09:39:38;;;;;;;17.25;3.17;;;4.90;99.90;;;;;;5035152;28;20036;-89
2023/02/10 09:42:17;;;;;;;29.20;3.97;;;4.90;99.90;;;;;;5035466;28;20021;-90
2023/02/10 09:44:51;;;;;;;16.02;3.72;;;5.00;99.90;;;;;;5035310;28;20021;-90
2023/02/10 09:47:32;;;;;;;16.02;3.15;;;5.00;99.90;;;;;;5035406;28;20055;-89
2023/02/10 09:50:19;;;;;;;15.45;3.28;;;5.10;99.90;;;;;;5035306;28;20036;-90
2023/02/10 09:53:03;;;;;;;19.30;3.80;;;5.10;99.90;;;;;;5045604;28;20025;-89
2023/02/10 09:56:06;;;;;;;13.80;3.70;;;5.20;99.90;;;;;;5036880;28;20037;-90
2023/02/10 09:58:42;;;;;;;19.30;3.33;;;5.20;99.90;;;;;;5012988;28;20172;-90
2023/02/10 10:01:22;;;;;;;13.60;3.70;;;5.30;99.90;;;;;;5034195;28;20029;-90
2023/02/10 10:04:07;;;;;;;14.25;3.03;;;5.40;99.90;;;;;;5034650;28;20025;-90
2023/02/10 10:06:40;;;;;;;11.93;2.45;;;5.40;99.90;;;;;;5037728;28;20041;-87
2023/02/10 10:09:09;;;;;;;8.63;2.35;;;5.50;99.90;;;;;;5044376;28;20033;-89
2023/02/10 10:11:44;;;;;;;14.85;1.98;;;5.60;99.90;;;;;;5047826;28;20024;-88
2023/02/10 10:14:39;;;;;;;10.60;2.13;;;5.60;99.90;;;;;;5048543;28;20035;-90
2023/02/10 10:17:28;;;;;;;6.70;1.80;;;5.70;99.90;;;;;;5047313;28;20020;-89
2023/02/10 10:20:09;;;;;;;8.02;2.08;;;5.80;99.90;;;;;;5045611;28;20425;-90
2023/02/10 10:23:02;;;;;;;16.63;2.10;;;5.90;99.90;;;;;;5035396;28;20474;-88
2023/02/10 10:25:52;;;;;;;12.30;1.98;;;6.00;99.90;;;;;;5045394;28;20029;-89
2023/02/10 10:28:33;;;;;;;13.50;2.22;;;6.00;99.90;;;;;;5053386;28;20037;-88
2023/02/10 10:31:14;;;;;;;14.55;2.22;;;6.10;99.90;;;;;;5035514;28;20017;-89
2023/02/10 10:34:22;;;;;;;13.07;2.20;;;6.20;99.90;;;;;;5035648;28;20056;-89
2023/02/10 10:36:52;;;;;;;18.55;2.70;;;6.30;99.90;;;;;;4966636;28;20023;-89
2023/02/10 10:39:39;;;;;;;9.32;1.45;;;6.40;99.90;;;;;;4958511;28;20031;-90
2023/02/10 10:42:26;;;;;;;12.05;2.58;;;6.40;99.90;;;;;;4949408;28;20027;-89
2023/02/10 10:45:01;;;;;;;12.18;2.67;;;6.50;99.90;;;;;;4962005;28;20121;-90
2023/02/10 10:48:09;;;;;;;11.48;1.67;;;6.60;99.90;;;;;;4959041;28;20068;-89
2023/02/10 10:50:35;;;;;;;12.90;2.15;;;6.70;99.90;;;;;;4957607;28;20097;-90
2023/02/10 10:53:11;;;;;;;7.07;1.40;;;6.80;99.90;;;;;;4974708;28;20034;-89
2023/02/10 10:55:54;;;;;;;8.48;1.77;;;6.80;99.90;;;;;;4974544;28;20029;-92
2023/02/10 10:58:27;;;;;;;12.45;1.70;;;6.90;99.90;;;;;;4958103;28;20023;-91
2023/02/10 11:00:55;;;;;;;14.45;2.45;;;6.90;99.90;;;;;;4958029;28;20030;-90
2023/02/10 11:03:21;;;;;;;9.40;2.00;;;6.90;99.90;;;;;;4974114;28;20499;-90
2023/02/10 11:05:59;;;;;;;9.50;1.58;;;7.00;99.90;;;;;;4973765;28;20019;-91
2023/02/10 11:08:29;;;;;;;12.90;1.88;;;7.00;99.90;;;;;;5000208;28;20034;-89
2023/02/10 11:10:57;;;;;;;9.63;1.70;;;7.00;99.90;;;;;;5013476;28;20030;-90
2023/02/10 11:13:27;;;;;;;9.45;2.13;;;7.10;99.90;;;;;;5002324;28;20093;-90
2023/02/10 11:16:07;;;;;;;12.07;1.50;;;7.10;99.90;;;;;;5012843;28;20438;-90
2023/02/10 11:18:33;;;;;;;13.88;2.42;;;7.10;99.90;;;;;;5013036;28;20514;-89
2023/02/10 11:21:01;;;;;;;13.10;2.08;;;7.10;99.90;;;;;;5013579;28;20034;-89
2023/02/10 11:23:28;;;;;;;7.68;1.30;;;7.20;99.90;;;;;;5016542;28;20133;-89
2023/02/10 11:26:15;;;;;;;14.25;2.15;;;7.20;99.90;;;;;;5015699;28;20137;-90
2023/02/10 11:28:41;;;;;;;9.95;2.33;;;7.20;99.90;;;;;;5007701;28;20439;-91
2023/02/10 11:31:32;;;;;;;9.35;1.92;;;7.20;99.90;;;;;;5014069;28;20122;-89
2023/02/10 11:34:02;;;;;;;11.60;2.17;;;7.20;99.90;;;;;;5012968;28;20021;-89
2023/02/10 11:36:39;;;;;;;7.55;1.95;;;7.20;99.90;;;;;;5013618;28;20095;-90
2023/02/10 11:39:16;;;;;;;13.40;3.00;;;7.20;99.90;;;;;;5008674;28;20026;-88
2023/02/10 11:41:42;;;;;;;12.02;2.70;;;7.20;99.90;;;;;;5006561;28;20045;-89
2023/02/10 11:44:31;;;;;;;10.43;2.50;;;7.20;99.90;;;;;;5028722;28;20025;-90
2023/02/10 11:47:01;;;;;;;10.90;3.65;;;7.20;99.90;;;;;;5034511;28;20120;-87
2023/02/10 11:49:31;;;;;;;12.93;4.03;;;7.20;99.90;;;;;;5057172;28;20036;-89
2023/02/10 11:51:58;;;;;;;13.68;3.97;;;7.10;99.90;;;;;;5055429;28;20032;-89
2023/02/10 11:54:25;;;;;;;12.70;3.65;;;7.10;99.90;;;;;;5033554;28;20037;-89
2023/02/10 12:00:18;;;;;;;11.38;3.42;;;7.10;99.90;;;;;;5035308;28;20402;-88
2023/02/10 12:03:22;;;;;;;13.88;4.70;;;7.10;99.90;;;;;;4958546;28;20062;-91
2023/02/10 12:06:05;;;;;;;18.80;7.40;;;7.10;99.90;;;;;;4946761;28;20076;-88
2023/02/10 12:08:58;;;;;;;20.38;6.13;;;7.00;99.90;;;;;;4997639;28;20035;-89
2023/02/10 12:11:44;;;;;;;24.75;10.20;;;7.00;99.90;;;;;;4993876;28;20026;-90
2023/02/10 12:14:38;;;;;;;30.67;13.30;;;7.10;99.90;;;;;;4989667;28;20034;-88
2023/02/10 12:17:25;;;;;;;19.77;6.80;;;7.00;99.90;;;;;;4976927;28;20089;-90
2023/02/10 12:20:29;;;;;;;14.20;4.93;;;7.00;99.90;;;;;;4992661;28;20170;-90
2023/02/10 12:23:32;;;;;;;14.93;4.55;;;7.00;99.90;;;;;;4937348;29;20107;-90
2023/02/10 12:26:18;;;;;;;9.10;2.70;;;6.90;99.90;;;;;;4938361;28;20113;-92
2023/02/10 12:29:12;;;;;;;13.60;5.22;;;6.90;99.90;;;;;;4895564;29;20478;-90
2023/02/10 12:31:49;;;;;;;12.45;4.95;;;6.90;99.90;;;;;;4920109;29;20036;-89
2023/02/10 12:34:23;;;;;;;13.18;4.68;;;6.90;99.90;;;;;;4920249;29;20036;-90
2023/02/10 12:36:56;;;;;;;11.38;5.22;;;6.90;99.90;;;;;;4919010;29;20477;-90
2023/02/10 12:39:28;;;;;;;16.83;5.18;;;6.90;99.90;;;;;;4931432;28;20066;-90
2023/02/10 12:42:19;;;;;;;14.65;4.30;;;6.90;99.90;;;;;;4957371;28;20031;-92
2023/02/10 12:45:00;;;;;;;13.30;4.38;;;6.90;99.90;;;;;;4957037;28;20097;-91
2023/02/10 12:47:42;;;;;;;12.27;3.58;;;6.90;99.90;;;;;;4952254;28;20054;-88
2023/02/10 12:50:30;;;;;;;13.90;2.95;;;6.90;99.90;;;;;;4947097;28;20094;-89
2023/02/10 12:53:05;;;;;;;14.15;4.32;;;6.90;99.90;;;;;;4966756;28;20038;-89
2023/02/10 12:55:59;;;;;;;12.45;3.53;;;6.90;99.90;;;;;;4969621;28;20118;-89
2023/02/10 12:58:41;;;;;;;12.48;2.42;;;6.90;99.90;;;;;;4938278;29;20607;-88
2023/02/10 13:01:12;;;;;;;8.05;1.70;;;6.90;99.90;;;;;;5014025;28;20052;-90
2023/02/10 13:03:42;;;;;;;12.90;2.78;;;7.00;99.90;;;;;;5017198;28;20017;-90
2023/02/10 13:06:10;;;;;;;10.63;2.27;;;7.00;99.90;;;;;;5016922;28;20073;-90
2023/02/10 13:08:48;;;;;;;11.45;1.73;;;7.00;99.90;;;;;;5033471;28;20029;-89